createdAt,value
2023-03-05T00:01:17.560Z,9.70
2023-03-05T00:03:44.114Z,9.80
2023-03-05T00:06:10.650Z,9.80
2023-03-05T00:08:37.122Z,9.70
2023-03-05T00:11:03.581Z,9.70
2023-03-05T00:13:30.058Z,9.70
2023-03-05T00:15:56.570Z,9.60
2023-03-05T00:18:23.057Z,9.70
2023-03-05T00:20:49.538Z,9.70
2023-03-05T00:23:16.014Z,9.70
2023-03-05T00:25:42.493Z,9.80
2023-03-05T00:28:08.970Z,9.70
2023-03-05T00:30:35.427Z,9.70
2023-03-05T00:33:01.897Z,9.70
2023-03-05T00:35:28.406Z,9.60
2023-03-05T00:37:54.907Z,9.70
2023-03-05T00:40:21.428Z,9.70
2023-03-05T00:42:47.926Z,9.60
2023-03-05T00:45:14.410Z,9.60
2023-03-05T00:47:40.877Z,9.60
2023-03-05T00:50:07.390Z,9.60
2023-03-05T00:52:33.876Z,9.60
2023-03-05T00:55:00.370Z,9.60
2023-03-05T00:57:26.856Z,9.70
2023-03-05T00:59:58.497Z,9.70
2023-03-05T01:02:24.971Z,9.70
2023-03-05T01:04:51.540Z,9.70
2023-03-05T01:07:18.271Z,9.60
2023-03-05T01:09:44.803Z,9.60
2023-03-05T01:12:11.272Z,9.60
2023-03-05T01:14:37.778Z,9.60
2023-03-05T01:17:04.260Z,9.60
2023-03-05T01:19:30.750Z,9.60
2023-03-05T01:21:57.230Z,9.60
2023-03-05T01:24:23.709Z,9.60
2023-03-05T01:26:50.233Z,9.70
2023-03-05T01:29:16.688Z,9.70
2023-03-05T01:31:43.257Z,9.70
2023-03-05T01:34:09.753Z,9.70
2023-03-05T01:36:36.254Z,9.70
2023-03-05T01:39:02.761Z,9.60
2023-03-05T01:41:29.276Z,9.60
2023-03-05T01:43:55.729Z,9.60
2023-03-05T01:46:22.215Z,9.60
2023-03-05T01:48:48.673Z,9.60
2023-03-05T01:51:15.154Z,9.60
2023-03-05T01:53:41.639Z,9.60
2023-03-05T01:56:08.110Z,9.60
2023-03-05T01:58:34.586Z,9.70
2023-03-05T02:01:01.108Z,9.60
2023-03-05T02:03:27.637Z,9.60
2023-03-05T02:05:54.130Z,9.50
2023-03-05T02:08:20.606Z,9.50
2023-03-05T02:10:47.087Z,9.50
2023-03-05T02:13:13.565Z,9.60
2023-03-05T02:15:40.065Z,9.50
2023-03-05T02:18:06.543Z,9.50
2023-03-05T02:20:33.055Z,9.60
2023-03-05T02:22:59.521Z,9.60
2023-03-05T02:25:26.040Z,9.50
2023-03-05T02:27:52.510Z,9.50
2023-03-05T02:30:19.010Z,9.60
2023-03-05T02:32:45.536Z,9.60
2023-03-05T02:35:12.076Z,9.60
2023-03-05T02:37:38.542Z,9.60
2023-03-05T02:40:05.023Z,9.50
2023-03-05T02:42:31.498Z,9.50
2023-03-05T02:44:57.965Z,9.50
2023-03-05T02:47:24.449Z,9.60
2023-03-05T02:49:50.919Z,9.60
2023-03-05T02:52:17.393Z,9.50
2023-03-05T02:54:43.879Z,9.60
2023-03-05T02:57:10.357Z,9.60
2023-03-05T02:59:36.840Z,9.60
2023-03-05T03:02:03.337Z,9.60
2023-03-05T03:04:29.821Z,9.60
2023-03-05T03:06:56.297Z,9.60
2023-03-05T03:09:22.763Z,9.60
2023-03-05T03:11:49.240Z,9.50
2023-03-05T03:14:15.778Z,9.50
2023-03-05T03:16:42.295Z,9.50
2023-03-05T03:19:08.805Z,9.60
2023-03-05T03:21:35.296Z,9.60
2023-03-05T03:24:01.777Z,9.60
2023-03-05T03:26:28.250Z,9.60
2023-03-05T03:28:54.733Z,9.50
2023-03-05T03:31:21.330Z,9.50
2023-03-05T03:33:47.827Z,9.50
2023-03-05T03:36:14.306Z,9.50
2023-03-05T03:38:40.810Z,9.50
2023-03-05T03:41:07.316Z,9.50
2023-03-05T03:43:34.582Z,9.60
2023-03-05T03:46:01.098Z,9.50
2023-03-05T03:48:27.606Z,9.60
2023-03-05T03:50:54.097Z,9.60
2023-03-05T03:53:20.569Z,9.60
2023-03-05T03:55:47.061Z,9.60
2023-03-05T03:58:13.558Z,9.60
2023-03-05T04:00:40.062Z,9.60
2023-03-05T04:03:06.560Z,9.60
2023-03-05T04:05:33.032Z,9.60
2023-03-05T04:07:59.512Z,9.60
2023-03-05T04:10:25.989Z,9.60
2023-03-05T04:12:52.476Z,9.60
2023-03-05T04:15:18.967Z,9.50
2023-03-05T04:17:45.447Z,9.60
2023-03-05T04:20:11.924Z,9.60
2023-03-05T04:22:38.416Z,9.60
2023-03-05T04:25:04.920Z,9.60
2023-03-05T04:27:31.403Z,9.50
2023-03-05T04:29:57.883Z,9.50
2023-03-05T04:32:24.391Z,9.60
2023-03-05T04:34:50.902Z,9.50
2023-03-05T04:37:17.381Z,9.50
2023-03-05T04:39:43.874Z,9.50
2023-03-05T04:42:10.396Z,9.50
2023-03-05T04:44:36.880Z,9.50
2023-03-05T04:47:03.377Z,9.50
2023-03-05T04:49:29.873Z,9.50
2023-03-05T04:51:56.339Z,9.60
2023-03-05T04:54:22.820Z,9.60
2023-03-05T04:56:49.291Z,9.60
2023-03-05T04:59:15.766Z,9.60
2023-03-05T05:01:42.302Z,9.60
2023-03-05T05:04:08.793Z,9.60
2023-03-05T05:06:35.427Z,9.60
2023-03-05T05:09:01.902Z,9.60
2023-03-05T05:11:28.397Z,9.50
2023-03-05T05:13:54.873Z,9.50
2023-03-05T05:16:21.369Z,9.50
2023-03-05T05:18:47.843Z,9.50
2023-03-05T05:21:14.325Z,9.50
2023-03-05T05:23:40.800Z,9.60
2023-03-05T05:26:07.313Z,9.60
2023-03-05T05:28:33.781Z,9.60
2023-03-05T05:31:00.228Z,9.60
2023-03-05T05:33:26.694Z,9.60
2023-03-05T05:35:53.214Z,9.60
2023-03-05T05:38:19.722Z,9.60
2023-03-05T05:40:46.188Z,9.60
2023-03-05T05:43:12.674Z,9.60
2023-03-05T05:45:39.330Z,9.60
2023-03-05T05:48:05.919Z,9.60
2023-03-05T05:50:32.414Z,9.60
2023-03-05T05:52:58.910Z,9.60
2023-03-05T05:55:25.380Z,9.60
2023-03-05T05:57:51.856Z,9.60
2023-03-05T06:00:22.845Z,9.50
2023-03-05T06:02:49.329Z,9.50
2023-03-05T06:05:15.821Z,9.50
2023-03-05T06:07:42.291Z,9.50
2023-03-05T06:10:08.758Z,9.50
2023-03-05T06:12:35.257Z,9.50
2023-03-05T06:15:01.721Z,9.50
2023-03-05T06:17:30.662Z,9.50
2023-03-05T06:19:57.458Z,9.50
2023-03-05T06:22:23.940Z,9.50
2023-03-05T06:24:50.414Z,9.50
2023-03-05T06:27:16.884Z,9.50
2023-03-05T06:29:43.353Z,9.50
2023-03-05T06:32:09.841Z,9.50
2023-03-05T06:34:36.311Z,9.50
2023-03-05T06:37:02.802Z,9.50
2023-03-05T06:39:29.282Z,9.50
2023-03-05T06:41:55.980Z,9.60
2023-03-05T06:44:22.470Z,9.60
2023-03-05T06:46:48.940Z,9.50
2023-03-05T06:49:16.793Z,9.60
2023-03-05T06:51:43.289Z,9.60
2023-03-05T06:54:09.763Z,9.50
2023-03-05T06:56:36.301Z,9.60
2023-03-05T06:59:02.781Z,9.50
2023-03-05T07:01:29.316Z,9.60
2023-03-05T07:03:55.824Z,9.50
2023-03-05T07:06:22.308Z,9.50
2023-03-05T07:08:48.801Z,9.50
2023-03-05T07:11:15.288Z,9.50
2023-03-05T07:13:41.773Z,9.50
2023-03-05T07:16:08.304Z,9.50
2023-03-05T07:18:34.818Z,9.50
2023-03-05T07:21:01.288Z,9.50
2023-03-05T07:23:27.804Z,9.50
2023-03-05T07:25:54.266Z,9.50
2023-03-05T07:28:20.765Z,9.50
2023-03-05T07:30:47.272Z,9.50
2023-03-05T07:33:13.775Z,9.40
2023-03-05T07:35:40.786Z,9.40
2023-03-05T07:38:07.263Z,9.50
2023-03-05T07:40:33.722Z,9.50
2023-03-05T07:43:00.192Z,9.50
2023-03-05T07:45:26.679Z,9.50
2023-03-05T07:47:53.145Z,9.40
2023-03-05T07:50:19.636Z,9.40
2023-03-05T07:52:46.112Z,9.40
2023-03-05T07:55:12.590Z,9.40
2023-03-05T07:57:39.093Z,9.40
2023-03-05T08:00:05.593Z,9.40
2023-03-05T08:02:32.114Z,9.40
2023-03-05T08:04:58.597Z,9.40
2023-03-05T08:07:25.063Z,9.40
2023-03-05T08:09:51.535Z,9.40
2023-03-05T08:12:18.001Z,9.50
2023-03-05T08:14:44.498Z,9.50
2023-03-05T08:17:10.950Z,9.50
2023-03-05T08:19:37.451Z,9.40
2023-03-05T08:22:03.922Z,9.40
2023-03-05T08:24:30.412Z,9.50
2023-03-05T08:26:57.009Z,9.50
2023-03-05T08:29:23.502Z,9.50
2023-03-05T08:31:49.974Z,9.40
2023-03-05T08:34:16.448Z,9.50
2023-03-05T08:36:42.928Z,9.40
2023-03-05T08:39:09.433Z,9.40
2023-03-05T08:41:35.897Z,9.40
2023-03-05T08:44:02.376Z,9.40
2023-03-05T08:46:28.879Z,9.40
2023-03-05T08:48:55.347Z,9.40
2023-03-05T08:51:21.851Z,9.30
2023-03-05T08:53:48.336Z,9.30
2023-03-05T08:56:14.817Z,9.40
2023-03-05T08:58:41.294Z,9.30
2023-03-05T09:01:07.780Z,9.30
2023-03-05T09:03:34.273Z,9.30
2023-03-05T09:06:00.748Z,9.30
2023-03-05T09:08:27.235Z,9.30
2023-03-05T09:10:53.714Z,9.30
2023-03-05T09:13:20.192Z,9.40
2023-03-05T09:15:46.653Z,9.30
2023-03-05T09:18:13.141Z,9.40
2023-03-05T09:20:39.617Z,9.30
2023-03-05T09:23:06.072Z,9.30
2023-03-05T09:25:32.561Z,9.30
2023-03-05T09:27:59.026Z,9.30
2023-03-05T09:30:25.507Z,9.40
2023-03-05T09:32:51.979Z,9.40
2023-03-05T09:35:18.561Z,9.40
2023-03-05T09:37:45.033Z,9.30
2023-03-05T09:40:11.531Z,9.40
2023-03-05T09:42:38.008Z,9.40
2023-03-05T09:45:04.472Z,9.40
2023-03-05T09:47:30.945Z,9.50
2023-03-05T09:49:57.409Z,9.50
2023-03-05T09:52:23.901Z,9.50
2023-03-05T09:54:50.371Z,9.40
2023-03-05T09:57:16.841Z,9.40
2023-03-05T09:59:47.105Z,9.50
2023-03-05T10:02:13.586Z,9.40
2023-03-05T10:04:40.099Z,9.40
2023-03-05T10:07:08.715Z,9.40
2023-03-05T10:09:36.883Z,9.30
2023-03-05T10:12:03.494Z,9.30
2023-03-05T10:14:29.954Z,9.30
2023-03-05T10:16:56.466Z,9.20
2023-03-05T10:19:22.939Z,9.30
2023-03-05T10:21:49.470Z,9.40
2023-03-05T10:24:15.937Z,9.40
2023-03-05T10:26:42.419Z,9.40
2023-03-05T10:29:08.917Z,9.40
2023-03-05T10:31:35.501Z,9.30
2023-03-05T10:34:02.018Z,9.30
2023-03-05T10:36:28.520Z,9.30
2023-03-05T10:38:54.983Z,9.30
2023-03-05T10:41:21.471Z,9.40
2023-03-05T10:43:47.931Z,9.40
2023-03-05T10:46:14.434Z,9.40
2023-03-05T10:48:40.938Z,9.50
2023-03-05T10:51:07.411Z,9.50
2023-03-05T10:53:33.876Z,9.50
2023-03-05T10:56:00.340Z,9.50
2023-03-05T10:58:26.810Z,9.50
2023-03-05T11:00:53.274Z,9.50
2023-03-05T11:03:19.748Z,9.50
2023-03-05T11:05:46.249Z,9.50
2023-03-05T11:08:12.725Z,9.40
2023-03-05T11:10:39.252Z,9.50
2023-03-05T11:13:05.733Z,9.50
2023-03-05T11:15:32.222Z,9.40
2023-03-05T11:17:58.703Z,9.40
2023-03-05T11:20:25.205Z,9.40
2023-03-05T11:22:51.669Z,9.40
2023-03-05T11:25:18.166Z,9.40
2023-03-05T11:27:44.679Z,9.40
2023-03-05T11:30:11.136Z,9.50
2023-03-05T11:32:37.646Z,9.50
2023-03-05T11:35:04.141Z,9.40
2023-03-05T11:37:30.615Z,9.50
2023-03-05T11:39:57.090Z,9.50
2023-03-05T11:42:23.582Z,9.50
2023-03-05T11:44:50.054Z,9.40
2023-03-05T11:47:16.536Z,9.40
2023-03-05T11:49:43.090Z,9.40
2023-03-05T11:52:09.569Z,9.40
2023-03-05T11:54:36.046Z,9.50
2023-03-05T11:57:02.534Z,9.50
2023-03-05T11:59:29.008Z,9.40
2023-03-05T12:01:55.452Z,9.40
2023-03-05T12:04:21.916Z,9.40
2023-03-05T12:06:48.395Z,9.40
2023-03-05T12:09:14.877Z,9.40
2023-03-05T12:11:41.363Z,9.40
2023-03-05T12:14:07.863Z,9.50
2023-03-05T12:16:34.420Z,9.60
2023-03-05T12:19:00.912Z,9.50
2023-03-05T12:21:27.405Z,9.50
2023-03-05T12:23:53.897Z,9.50
2023-03-05T12:26:20.366Z,9.50
2023-03-05T12:28:46.854Z,9.40
2023-03-05T12:31:13.328Z,9.50
2023-03-05T12:33:39.797Z,9.60
2023-03-05T12:36:06.294Z,9.60
2023-03-05T12:38:32.783Z,9.50
2023-03-05T12:40:59.276Z,9.40
2023-03-05T12:43:25.758Z,9.60
2023-03-05T12:45:52.246Z,9.90
2023-03-05T12:48:18.783Z,9.90
2023-03-05T12:50:45.330Z,10.10
2023-03-05T12:53:11.787Z,10.10
2023-03-05T12:55:38.292Z,10.30
2023-03-05T12:58:04.774Z,10.30
2023-03-05T13:00:31.294Z,10.40
2023-03-05T13:02:57.794Z,10.50
2023-03-05T13:05:24.300Z,10.50
2023-03-05T13:07:50.772Z,10.50
2023-03-05T13:10:17.243Z,10.60
2023-03-05T13:12:43.723Z,10.70
2023-03-05T13:15:10.219Z,10.80
2023-03-05T13:17:36.703Z,10.60
2023-03-05T13:20:03.192Z,10.60
2023-03-05T13:22:29.670Z,10.30
2023-03-05T13:24:56.094Z,10.40
2023-03-05T13:27:22.566Z,10.50
2023-03-05T13:29:48.982Z,10.50
2023-03-05T13:32:15.513Z,10.50
2023-03-05T13:34:47.658Z,10.70
2023-03-05T13:37:14.398Z,10.70
2023-03-05T13:39:40.864Z,10.50
2023-03-05T13:42:07.350Z,10.70
2023-03-05T13:44:33.851Z,10.90
2023-03-05T13:47:00.348Z,11.00
2023-03-05T13:49:26.825Z,11.10
2023-03-05T13:51:53.329Z,11.10
2023-03-05T13:54:19.787Z,10.80
2023-03-05T13:56:46.276Z,10.70
2023-03-05T13:59:12.759Z,10.70
2023-03-05T14:01:39.226Z,10.70
2023-03-05T14:04:05.685Z,10.80
2023-03-05T14:06:32.147Z,10.80
2023-03-05T14:08:59.567Z,10.80
2023-03-05T14:11:26.121Z,11.00
2023-03-05T14:13:52.595Z,11.20
2023-03-05T14:16:19.344Z,11.10
2023-03-05T14:18:45.855Z,11.10
2023-03-05T14:21:12.395Z,11.20
2023-03-05T14:23:38.911Z,11.00
2023-03-05T14:26:05.395Z,11.00
2023-03-05T14:28:31.876Z,11.00
2023-03-05T14:30:58.398Z,11.00
2023-03-05T14:33:24.937Z,11.00
2023-03-05T14:35:51.465Z,11.00
2023-03-05T14:38:17.960Z,11.10
2023-03-05T14:40:44.464Z,11.00
2023-03-05T14:43:11.069Z,11.10
2023-03-05T14:45:37.628Z,11.10
2023-03-05T14:48:04.092Z,11.10
2023-03-05T14:50:30.574Z,11.20
2023-03-05T14:52:57.040Z,11.10
2023-03-05T14:55:23.509Z,11.10
2023-03-05T14:57:49.984Z,11.20
2023-03-05T15:00:16.472Z,11.10
2023-03-05T15:02:42.980Z,11.10
2023-03-05T15:05:09.587Z,11.00
2023-03-05T15:07:36.183Z,11.00
2023-03-05T15:10:02.745Z,10.80
2023-03-05T15:12:29.242Z,11.00
2023-03-05T15:14:55.718Z,11.00
2023-03-05T15:17:22.203Z,11.10
2023-03-05T15:19:48.683Z,11.00
2023-03-05T15:22:15.171Z,11.10
2023-03-05T15:24:41.668Z,11.10
2023-03-05T15:27:08.114Z,11.20
2023-03-05T15:29:34.564Z,11.40
2023-03-05T15:32:01.107Z,11.30
2023-03-05T15:34:27.740Z,11.40
2023-03-05T15:36:54.210Z,11.20
2023-03-05T15:39:20.680Z,11.20
2023-03-05T15:41:47.153Z,11.30
2023-03-05T15:44:13.659Z,11.10
2023-03-05T15:46:40.275Z,11.10
2023-03-05T15:49:06.778Z,11.10
2023-03-05T15:51:33.250Z,11.10
2023-03-05T15:53:59.719Z,11.20
2023-03-05T15:56:26.178Z,11.30
2023-03-05T15:58:52.679Z,11.20
2023-03-05T16:01:19.215Z,11.30
2023-03-05T16:03:45.746Z,11.40
2023-03-05T16:06:12.219Z,11.30
2023-03-05T16:08:38.801Z,11.40
2023-03-05T16:11:05.397Z,11.50
2023-03-05T16:13:31.873Z,11.50
2023-03-05T16:15:58.332Z,11.30
2023-03-05T16:18:24.837Z,11.40
2023-03-05T16:20:51.307Z,11.20
2023-03-05T16:23:17.812Z,11.20
2023-03-05T16:25:44.273Z,11.10
2023-03-05T16:28:10.760Z,11.10
2023-03-05T16:30:37.228Z,10.90
2023-03-05T16:33:03.683Z,11.10
2023-03-05T16:35:30.198Z,11.10
2023-03-05T16:37:56.714Z,11.10
2023-03-05T16:40:23.195Z,11.10
2023-03-05T16:42:49.665Z,11.00
2023-03-05T16:45:16.140Z,11.00
2023-03-05T16:47:42.624Z,11.20
2023-03-05T16:50:09.142Z,11.20
2023-03-05T16:52:35.616Z,11.10
2023-03-05T16:55:02.092Z,11.30
2023-03-05T16:57:28.586Z,11.10
2023-03-05T16:59:55.054Z,11.10
2023-03-05T17:02:21.534Z,11.20
2023-03-05T17:04:48.020Z,11.50
2023-03-05T17:07:14.493Z,11.60
2023-03-05T17:09:40.976Z,11.50
2023-03-05T17:12:07.445Z,11.20
2023-03-05T17:14:33.941Z,11.10
2023-03-05T17:17:00.420Z,11.00
2023-03-05T17:19:26.905Z,11.00
2023-03-05T17:21:53.363Z,11.00
2023-03-05T17:24:22.310Z,11.00
2023-03-05T17:26:49.278Z,11.00
2023-03-05T17:29:15.748Z,11.00
2023-03-05T17:31:42.250Z,10.90
2023-03-05T17:34:08.746Z,11.10
2023-03-05T17:36:35.216Z,11.20
2023-03-05T17:39:01.706Z,11.00
2023-03-05T17:41:28.194Z,11.10
2023-03-05T17:43:54.652Z,11.20
2023-03-05T17:46:21.128Z,11.30
2023-03-05T17:48:48.085Z,11.50
2023-03-05T17:51:14.556Z,11.60
2023-03-05T17:53:41.020Z,11.50
2023-03-05T17:56:07.487Z,11.50
2023-03-05T17:58:33.968Z,11.40
2023-03-05T18:01:00.548Z,11.30
2023-03-05T18:03:27.051Z,11.20
2023-03-05T18:05:53.545Z,11.20
2023-03-05T18:08:20.033Z,11.10
2023-03-05T18:10:46.517Z,11.10
2023-03-05T18:13:12.991Z,11.00
2023-03-05T18:15:39.470Z,11.10
2023-03-05T18:18:05.938Z,11.00
2023-03-05T18:20:32.415Z,11.00
2023-03-05T18:22:58.915Z,11.00
2023-03-05T18:25:25.400Z,11.00
2023-03-05T18:27:51.868Z,11.10
2023-03-05T18:30:18.327Z,11.10
2023-03-05T18:32:44.835Z,11.10
2023-03-05T18:35:11.310Z,11.00
2023-03-05T18:37:37.753Z,11.00
2023-03-05T18:40:04.230Z,11.00
2023-03-05T18:42:30.699Z,10.90
2023-03-05T18:44:57.161Z,11.00
2023-03-05T18:47:23.617Z,10.90
2023-03-05T18:49:50.102Z,10.80
2023-03-05T18:52:16.603Z,10.90
2023-03-05T18:54:43.104Z,11.10
2023-03-05T18:57:09.574Z,11.10
2023-03-05T18:59:36.040Z,10.90
2023-03-05T19:02:02.495Z,10.80
2023-03-05T19:04:29.003Z,10.80
2023-03-05T19:06:55.507Z,10.70
2023-03-05T19:09:21.967Z,10.70
2023-03-05T19:11:48.441Z,10.70
2023-03-05T19:14:14.927Z,10.70
2023-03-05T19:16:41.404Z,10.70
2023-03-05T19:19:07.913Z,10.60
2023-03-05T19:21:34.413Z,10.60
2023-03-05T19:24:00.882Z,10.60
2023-03-05T19:26:27.358Z,10.60
2023-03-05T19:28:53.830Z,10.60
2023-03-05T19:31:20.336Z,10.60
2023-03-05T19:33:46.867Z,10.70
2023-03-05T19:36:13.347Z,10.60
2023-03-05T19:38:39.827Z,10.60
2023-03-05T19:41:06.294Z,10.60
2023-03-05T19:43:32.760Z,10.50
2023-03-05T19:45:59.260Z,10.60
2023-03-05T19:48:25.744Z,10.50
2023-03-05T19:50:52.227Z,10.50
2023-03-05T19:53:18.703Z,10.50
2023-03-05T19:55:45.170Z,10.50
2023-03-05T19:58:11.637Z,10.50
2023-03-05T20:00:38.109Z,10.50
2023-03-05T20:03:04.587Z,10.50
2023-03-05T20:05:31.073Z,10.50
2023-03-05T20:07:57.558Z,10.50
2023-03-05T20:10:24.046Z,10.40
2023-03-05T20:12:50.555Z,10.40
2023-03-05T20:15:17.117Z,10.50
2023-03-05T20:17:43.594Z,10.50
2023-03-05T20:20:10.098Z,10.50
2023-03-05T20:22:36.596Z,10.40
2023-03-05T20:25:03.087Z,10.40
2023-03-05T20:27:35.412Z,10.40
2023-03-05T20:30:01.893Z,10.40
2023-03-05T20:32:28.439Z,10.40
2023-03-05T20:34:54.948Z,10.40
2023-03-05T20:37:21.427Z,10.40
2023-03-05T20:39:47.900Z,10.40
2023-03-05T20:42:14.381Z,10.40
2023-03-05T20:44:40.852Z,10.40
2023-03-05T20:47:07.344Z,10.40
2023-03-05T20:49:33.835Z,10.40
2023-03-05T20:52:00.307Z,10.40
2023-03-05T20:54:26.769Z,10.30
2023-03-05T20:56:53.301Z,10.30
2023-03-05T20:59:19.787Z,10.40
2023-03-05T21:01:46.299Z,10.40
2023-03-05T21:04:17.660Z,10.30
2023-03-05T21:06:44.141Z,10.30
2023-03-05T21:09:10.730Z,10.30
2023-03-05T21:11:37.237Z,10.30
2023-03-05T21:14:03.756Z,10.30
2023-03-05T21:16:30.267Z,10.30
2023-03-05T21:18:56.758Z,10.30
2023-03-05T21:21:23.215Z,10.30
2023-03-05T21:23:49.684Z,10.30
2023-03-05T21:26:16.192Z,10.30
2023-03-05T21:28:42.732Z,10.30
2023-03-05T21:31:09.233Z,10.40
2023-03-05T21:33:35.720Z,10.40
2023-03-05T21:36:02.191Z,10.30
2023-03-05T21:38:28.682Z,10.30
2023-03-05T21:40:55.172Z,10.30
2023-03-05T21:43:21.626Z,10.50
2023-03-05T21:45:48.128Z,10.50
2023-03-05T21:48:14.625Z,10.50
2023-03-05T21:50:41.083Z,10.60
2023-03-05T21:53:07.562Z,10.70
2023-03-05T21:55:34.036Z,10.70
2023-03-05T21:58:00.507Z,10.70
2023-03-05T22:00:26.989Z,10.70
2023-03-05T22:02:53.463Z,10.70
2023-03-05T22:05:19.923Z,10.70
2023-03-05T22:07:46.427Z,10.60
2023-03-05T22:10:12.890Z,10.50
2023-03-05T22:12:39.383Z,10.50
2023-03-05T22:15:05.860Z,10.50
2023-03-05T22:17:32.347Z,10.60
2023-03-05T22:19:58.824Z,10.50
2023-03-05T22:22:29.502Z,10.50
2023-03-05T22:24:55.980Z,10.50
2023-03-05T22:27:22.456Z,10.60
2023-03-05T22:29:48.937Z,10.50
2023-03-05T22:32:15.403Z,10.50
2023-03-05T22:34:41.889Z,10.60
2023-03-05T22:37:08.356Z,10.50
2023-03-05T22:39:34.824Z,10.50
2023-03-05T22:42:01.284Z,10.50
2023-03-05T22:44:27.763Z,10.50
2023-03-05T22:46:54.216Z,10.50
2023-03-05T22:49:20.675Z,10.50
2023-03-05T22:51:47.149Z,10.50
2023-03-05T22:54:13.626Z,10.50
2023-03-05T22:56:40.128Z,10.40
2023-03-05T22:59:06.614Z,10.40
2023-03-05T23:01:33.093Z,10.40
2023-03-05T23:03:59.580Z,10.40
2023-03-05T23:06:26.090Z,10.40
2023-03-05T23:08:52.571Z,10.40
2023-03-05T23:11:19.055Z,10.40
2023-03-05T23:13:45.536Z,10.30
2023-03-05T23:16:12.051Z,10.40
2023-03-05T23:18:38.553Z,10.40
2023-03-05T23:21:05.027Z,10.40
2023-03-05T23:23:31.510Z,10.40
2023-03-05T23:25:58.062Z,10.40
2023-03-05T23:28:24.548Z,10.40
2023-03-05T23:30:51.075Z,10.40
2023-03-05T23:33:17.603Z,10.40
2023-03-05T23:35:44.096Z,10.40
2023-03-05T23:38:10.550Z,10.30
2023-03-05T23:40:37.040Z,10.40
2023-03-05T23:43:03.522Z,10.30
2023-03-05T23:45:29.998Z,10.30
2023-03-05T23:47:56.544Z,10.20
2023-03-05T23:50:23.044Z,10.30
2023-03-05T23:52:49.580Z,10.30
2023-03-05T23:55:16.084Z,10.20
2023-03-05T23:57:42.567Z,10.30
